createdAt,value
2018-05-29T00:00:03.309Z,20.96
2018-05-29T00:02:30.778Z,20.82
2018-05-29T00:04:58.213Z,20.70
2018-05-29T00:07:25.671Z,20.45
2018-05-29T00:09:53.113Z,20.33
2018-05-29T00:12:20.609Z,20.23
2018-05-29T00:14:48.078Z,20.21
2018-05-29T00:17:15.550Z,20.11
2018-05-29T00:19:43.032Z,20.03
2018-05-29T00:22:10.502Z,19.98
2018-05-29T00:24:38.302Z,20.01
2018-05-29T00:27:05.744Z,19.96
2018-05-29T00:29:33.213Z,19.98
2018-05-29T00:32:00.742Z,20.08
2018-05-29T00:34:28.244Z,20.24
2018-05-29T00:36:55.789Z,20.31
2018-05-29T00:39:23.299Z,20.29
2018-05-29T00:41:50.774Z,20.27
2018-05-29T00:44:18.213Z,20.12
2018-05-29T00:46:45.668Z,19.99
2018-05-29T00:49:13.119Z,19.99
2018-05-29T00:51:40.661Z,19.98
2018-05-29T00:54:08.155Z,19.83
2018-05-29T00:56:35.599Z,19.73
2018-05-29T00:59:03.055Z,19.79
2018-05-29T01:01:30.932Z,19.83
2018-05-29T01:03:58.505Z,19.74
2018-05-29T01:06:26.069Z,19.65
2018-05-29T01:08:53.563Z,19.52
2018-05-29T01:11:21.004Z,19.53
2018-05-29T01:13:48.446Z,19.51
2018-05-29T01:16:15.921Z,19.47
2018-05-29T01:18:43.400Z,19.43
2018-05-29T01:21:10.937Z,19.38
2018-05-29T01:23:38.379Z,19.48
2018-05-29T01:26:05.848Z,19.35
2018-05-29T01:28:33.311Z,19.37
2018-05-29T01:31:00.843Z,19.38
2018-05-29T01:33:28.290Z,19.15
2018-05-29T01:35:55.812Z,19.07
2018-05-29T01:38:23.314Z,19.04
2018-05-29T01:40:50.777Z,19.03
2018-05-29T01:43:18.222Z,18.98
2018-05-29T01:45:45.730Z,18.92
2018-05-29T01:48:13.189Z,18.85
2018-05-29T01:50:40.653Z,18.85
2018-05-29T01:53:08.112Z,18.93
2018-05-29T01:55:35.546Z,18.92
2018-05-29T01:58:02.986Z,18.87
2018-05-29T02:00:30.467Z,18.82
2018-05-29T02:02:57.969Z,18.70
2018-05-29T02:05:25.428Z,18.61
2018-05-29T02:07:52.873Z,18.62
2018-05-29T02:10:20.309Z,18.61
2018-05-29T02:12:47.885Z,18.62
2018-05-29T02:15:15.449Z,18.62
2018-05-29T02:17:42.962Z,18.64
2018-05-29T02:20:10.420Z,18.64
2018-05-29T02:22:37.864Z,18.71
2018-05-29T02:25:05.325Z,18.63
2018-05-29T02:27:32.794Z,18.65
2018-05-29T02:30:00.249Z,18.73
2018-05-29T02:32:27.762Z,18.77
2018-05-29T02:34:55.220Z,18.79
2018-05-29T02:37:22.668Z,18.81
2018-05-29T02:39:50.124Z,18.73
2018-05-29T02:42:17.705Z,18.76
2018-05-29T02:44:45.248Z,18.69
2018-05-29T02:47:12.688Z,18.63
2018-05-29T02:49:40.142Z,18.52
2018-05-29T02:52:07.578Z,18.61
2018-05-29T02:54:35.049Z,18.57
2018-05-29T02:57:02.518Z,18.52
2018-05-29T02:59:29.987Z,18.53
2018-05-29T03:01:57.433Z,18.55
2018-05-29T03:04:24.899Z,18.50
2018-05-29T03:06:52.349Z,18.43
2018-05-29T03:09:19.802Z,18.50
2018-05-29T03:11:47.269Z,18.51
2018-05-29T03:14:14.744Z,18.44
2018-05-29T03:16:42.248Z,18.40
2018-05-29T03:19:09.696Z,18.49
2018-05-29T03:21:37.172Z,18.44
2018-05-29T03:24:04.620Z,18.49
2018-05-29T03:26:32.181Z,18.54
2018-05-29T03:28:59.627Z,18.85
2018-05-29T03:31:27.141Z,18.88
2018-05-29T03:33:54.681Z,18.84
2018-05-29T03:36:22.212Z,18.79
2018-05-29T03:38:49.670Z,18.76
2018-05-29T03:41:17.119Z,18.64
2018-05-29T03:43:44.590Z,18.82
2018-05-29T03:46:12.115Z,18.76
2018-05-29T03:48:39.583Z,18.67
2018-05-29T03:51:07.022Z,18.77
2018-05-29T03:53:34.534Z,18.82
2018-05-29T03:56:01.975Z,18.87
2018-05-29T03:58:29.441Z,18.85
2018-05-29T04:00:56.929Z,18.98
2018-05-29T04:03:24.370Z,19.17
2018-05-29T04:05:51.861Z,19.17
2018-05-29T04:08:19.371Z,19.21
2018-05-29T04:10:46.842Z,19.35
2018-05-29T04:13:14.309Z,19.44
2018-05-29T04:15:41.784Z,19.50
2018-05-29T04:18:09.290Z,19.51
2018-05-29T04:20:36.731Z,19.71
2018-05-29T04:23:04.174Z,20.32
2018-05-29T04:25:31.620Z,20.03
2018-05-29T04:27:59.099Z,20.09
2018-05-29T04:30:26.591Z,20.43
2018-05-29T04:32:54.138Z,20.65
2018-05-29T04:35:21.605Z,21.92
2018-05-29T04:37:49.104Z,21.36
2018-05-29T04:40:16.620Z,21.04
2018-05-29T04:42:44.078Z,21.27
2018-05-29T04:45:11.634Z,21.35
2018-05-29T04:47:39.082Z,21.49
2018-05-29T04:50:06.643Z,21.87
2018-05-29T04:52:34.116Z,22.34
2018-05-29T04:55:01.569Z,22.70
2018-05-29T04:57:29.115Z,22.42
2018-05-29T04:59:56.599Z,21.27
2018-05-29T05:02:24.045Z,21.34
2018-05-29T05:04:51.490Z,21.48
2018-05-29T05:07:18.938Z,20.97
2018-05-29T05:09:46.395Z,21.38
2018-05-29T05:12:13.852Z,21.51
2018-05-29T05:14:41.329Z,21.15
2018-05-29T05:17:08.786Z,21.02
2018-05-29T05:19:36.219Z,21.01
2018-05-29T05:22:03.710Z,21.02
2018-05-29T05:24:32.087Z,21.90
2018-05-29T05:26:59.717Z,22.80
2018-05-29T05:29:27.170Z,22.82
2018-05-29T05:31:54.629Z,23.28
2018-05-29T05:34:22.093Z,23.43
2018-05-29T05:36:49.547Z,23.69
2018-05-29T05:39:17.019Z,23.73
2018-05-29T05:41:44.469Z,24.84
2018-05-29T05:44:11.933Z,24.97
2018-05-29T05:46:39.510Z,25.19
2018-05-29T05:49:07.153Z,25.34
2018-05-29T05:51:34.604Z,25.08
2018-05-29T05:54:02.066Z,25.06
2018-05-29T05:56:29.523Z,25.02
2018-05-29T05:58:57.121Z,24.34
2018-05-29T06:01:24.665Z,24.19
2018-05-29T06:03:52.203Z,24.99
2018-05-29T06:06:19.791Z,25.14
2018-05-29T06:08:47.232Z,24.71
2018-05-29T06:11:14.710Z,25.17
2018-05-29T06:13:42.176Z,24.82
2018-05-29T06:16:09.716Z,24.22
2018-05-29T06:18:37.163Z,24.70
2018-05-29T06:21:04.627Z,24.92
2018-05-29T06:23:32.102Z,24.93
2018-05-29T06:25:59.569Z,24.67
2018-05-29T06:28:27.008Z,25.09
2018-05-29T06:30:54.494Z,25.07
2018-05-29T06:33:21.969Z,25.13
2018-05-29T06:35:49.456Z,24.71
2018-05-29T06:38:16.990Z,24.44
2018-05-29T06:40:44.459Z,23.96
2018-05-29T06:43:11.926Z,24.40
2018-05-29T06:45:39.438Z,24.06
2018-05-29T06:48:06.942Z,24.33
2018-05-29T06:50:34.440Z,24.28
2018-05-29T06:53:01.910Z,24.49
2018-05-29T06:55:29.439Z,24.41
2018-05-29T06:57:56.906Z,24.54
2018-05-29T07:00:24.374Z,24.42
2018-05-29T07:02:51.865Z,24.44
2018-05-29T07:05:19.409Z,24.64
2018-05-29T07:07:46.903Z,24.27
2018-05-29T07:10:14.367Z,24.17
2018-05-29T07:12:41.839Z,24.08
2018-05-29T07:15:09.349Z,24.12
2018-05-29T07:17:36.843Z,24.31
2018-05-29T07:20:04.294Z,24.38
2018-05-29T07:22:31.769Z,24.83
2018-05-29T07:24:59.353Z,25.31
2018-05-29T07:27:26.837Z,25.08
2018-05-29T07:29:54.283Z,25.11
2018-05-29T07:32:21.863Z,25.97
2018-05-29T07:34:49.343Z,26.24
2018-05-29T07:37:16.788Z,26.81
2018-05-29T07:39:44.364Z,27.46
2018-05-29T07:42:11.816Z,27.12
2018-05-29T07:44:39.316Z,27.35
2018-05-29T07:47:06.790Z,26.66
2018-05-29T07:49:34.311Z,27.15
2018-05-29T07:52:01.909Z,27.33
2018-05-29T07:54:29.909Z,27.21
2018-05-29T07:56:57.476Z,27.28
2018-05-29T07:59:25.081Z,26.98
2018-05-29T08:01:52.608Z,27.64
2018-05-29T08:04:20.075Z,27.76
2018-05-29T08:06:47.569Z,27.90
2018-05-29T08:09:15.042Z,27.69
2018-05-29T08:11:42.509Z,28.17
2018-05-29T08:14:09.965Z,28.43
2018-05-29T08:16:37.471Z,28.19
2018-05-29T08:19:04.960Z,28.41
2018-05-29T08:21:32.425Z,28.28
2018-05-29T08:23:59.886Z,28.51
2018-05-29T08:26:27.505Z,28.21
2018-05-29T08:28:55.037Z,28.14
2018-05-29T08:31:22.556Z,28.18
2018-05-29T08:33:50.013Z,28.12
2018-05-29T08:36:17.510Z,27.74
2018-05-29T08:38:44.989Z,27.78
2018-05-29T08:41:12.557Z,26.86
2018-05-29T08:43:40.030Z,27.56
2018-05-29T08:46:07.522Z,27.82
2018-05-29T08:48:35.028Z,27.31
2018-05-29T08:51:02.523Z,27.49
2018-05-29T08:53:29.980Z,27.17
2018-05-29T08:55:57.523Z,27.68
2018-05-29T08:58:25.049Z,28.20
2018-05-29T09:00:52.617Z,27.86
2018-05-29T09:03:20.062Z,27.98
2018-05-29T09:05:47.619Z,27.56
2018-05-29T09:08:15.176Z,27.72
2018-05-29T09:10:43.697Z,28.14
2018-05-29T09:13:11.323Z,28.06
2018-05-29T09:15:38.808Z,28.19
2018-05-29T09:18:06.284Z,27.85
2018-05-29T09:20:33.734Z,27.81
2018-05-29T09:23:01.262Z,27.49
2018-05-29T09:25:28.714Z,27.71
2018-05-29T09:27:56.153Z,27.68
2018-05-29T09:30:23.676Z,28.20
2018-05-29T09:32:51.289Z,27.42
2018-05-29T09:35:18.816Z,28.26
2018-05-29T09:37:46.343Z,28.11
2018-05-29T09:40:13.881Z,28.49
2018-05-29T09:42:41.413Z,28.74
2018-05-29T09:45:08.886Z,28.35
2018-05-29T09:47:36.379Z,29.07
2018-05-29T09:50:03.884Z,28.70
2018-05-29T09:52:31.355Z,28.20
2018-05-29T09:54:58.893Z,27.86
2018-05-29T09:57:26.681Z,27.39
2018-05-29T09:59:54.140Z,27.74
2018-05-29T10:02:21.613Z,27.74
2018-05-29T10:04:49.080Z,27.50
2018-05-29T10:07:17.797Z,27.69
2018-05-29T10:09:47.240Z,28.18
2018-05-29T10:12:14.914Z,28.70
2018-05-29T10:14:42.455Z,28.63
2018-05-29T10:17:10.016Z,28.64
2018-05-29T10:19:37.713Z,28.37
2018-05-29T10:22:05.174Z,29.07
2018-05-29T10:24:32.681Z,29.78
2018-05-29T10:27:00.145Z,29.56
2018-05-29T10:29:27.609Z,30.03
2018-05-29T10:31:55.173Z,29.88
2018-05-29T10:34:23.201Z,29.90
2018-05-29T10:36:50.786Z,29.96
2018-05-29T10:39:18.275Z,29.98
2018-05-29T10:41:45.831Z,30.27
2018-05-29T10:44:13.385Z,31.27
2018-05-29T10:46:41.088Z,30.84
2018-05-29T10:49:08.564Z,31.71
2018-05-29T10:51:36.010Z,30.49
2018-05-29T10:54:03.473Z,30.71
2018-05-29T10:56:30.930Z,30.83
2018-05-29T10:58:58.403Z,31.14
2018-05-29T11:01:25.874Z,32.30
2018-05-29T11:03:53.354Z,32.28
2018-05-29T11:06:20.922Z,32.00
2018-05-29T11:08:48.449Z,31.63
2018-05-29T11:11:15.977Z,32.06
2018-05-29T11:13:43.472Z,31.85
2018-05-29T11:16:11.418Z,30.95
2018-05-29T11:18:38.996Z,30.96
2018-05-29T11:21:06.583Z,30.92
2018-05-29T11:23:34.021Z,31.60
2018-05-29T11:26:01.484Z,30.89
2018-05-29T11:28:28.946Z,31.99
2018-05-29T11:30:56.517Z,32.04
2018-05-29T11:33:23.967Z,30.60
2018-05-29T11:35:51.434Z,31.28
2018-05-29T11:38:18.913Z,31.36
2018-05-29T11:40:46.352Z,31.55
2018-05-29T11:43:13.818Z,32.47
2018-05-29T11:45:41.335Z,33.42
2018-05-29T11:48:08.872Z,34.14
2018-05-29T11:50:36.338Z,33.82
2018-05-29T11:53:03.814Z,34.02
2018-05-29T11:55:31.356Z,33.72
2018-05-29T11:57:58.864Z,33.19
2018-05-29T12:00:26.372Z,34.52
2018-05-29T12:02:54.977Z,34.13
2018-05-29T12:05:22.458Z,35.55
2018-05-29T12:07:49.969Z,37.77
2018-05-29T12:10:17.434Z,38.04
2018-05-29T12:12:44.906Z,38.24
2018-05-29T12:15:12.451Z,39.47
2018-05-29T12:17:39.901Z,38.39
2018-05-29T12:20:07.461Z,35.52
2018-05-29T12:22:34.915Z,35.89
2018-05-29T12:25:02.402Z,37.47
2018-05-29T12:27:29.909Z,38.07
2018-05-29T12:29:57.361Z,35.78
2018-05-29T12:32:25.022Z,34.79
2018-05-29T12:34:52.540Z,35.24
2018-05-29T12:37:20.056Z,36.30
2018-05-29T12:39:47.509Z,36.88
2018-05-29T12:42:15.010Z,35.61
2018-05-29T12:44:42.473Z,34.01
2018-05-29T12:47:10.000Z,33.32
2018-05-29T12:49:37.467Z,34.05
2018-05-29T12:52:04.947Z,37.10
2018-05-29T12:54:32.426Z,39.72
2018-05-29T12:56:59.933Z,40.40
2018-05-29T12:59:27.431Z,40.35
2018-05-29T13:01:54.967Z,38.60
2018-05-29T13:04:22.556Z,36.43
2018-05-29T13:06:50.054Z,35.00
2018-05-29T13:09:17.562Z,33.03
2018-05-29T13:11:45.041Z,32.63
2018-05-29T13:14:12.770Z,31.40
2018-05-29T13:16:40.266Z,31.31
2018-05-29T13:19:07.733Z,30.51
2018-05-29T13:21:35.190Z,29.48
2018-05-29T13:24:02.662Z,29.86
2018-05-29T13:26:30.158Z,29.36
2018-05-29T13:28:57.630Z,30.55
2018-05-29T13:31:25.080Z,31.78
2018-05-29T13:33:52.551Z,31.66
2018-05-29T13:36:20.097Z,32.07
2018-05-29T13:38:47.588Z,33.05
2018-05-29T13:41:15.104Z,31.13
2018-05-29T13:43:42.536Z,29.99
2018-05-29T13:46:10.017Z,28.84
2018-05-29T13:48:37.495Z,28.18
2018-05-29T13:51:04.969Z,27.65
2018-05-29T13:53:32.475Z,27.54
2018-05-29T13:56:04.745Z,27.49
2018-05-29T13:58:32.235Z,27.70
2018-05-29T14:00:59.673Z,27.80
2018-05-29T14:03:27.215Z,27.68
2018-05-29T14:05:54.665Z,27.44
2018-05-29T14:08:22.197Z,26.90
2018-05-29T14:10:49.672Z,26.09
2018-05-29T14:13:17.122Z,25.85
2018-05-29T14:15:44.573Z,25.84
2018-05-29T14:18:12.293Z,25.24
2018-05-29T14:20:39.804Z,24.79
2018-05-29T14:23:07.259Z,24.80
2018-05-29T14:25:34.870Z,24.68
2018-05-29T14:28:02.331Z,24.87
2018-05-29T14:30:29.825Z,25.00
2018-05-29T14:32:57.296Z,25.05
2018-05-29T14:35:24.793Z,24.86
2018-05-29T14:37:52.239Z,24.50
2018-05-29T14:40:19.792Z,24.35
2018-05-29T14:42:47.240Z,24.46
2018-05-29T14:45:14.712Z,24.77
2018-05-29T14:47:42.182Z,24.62
2018-05-29T14:50:09.618Z,24.45
2018-05-29T14:52:37.064Z,24.64
2018-05-29T14:55:04.571Z,24.60
2018-05-29T14:57:32.038Z,24.58
2018-05-29T14:59:59.813Z,24.45
2018-05-29T15:02:27.507Z,24.92
2018-05-29T15:04:55.000Z,24.67
2018-05-29T15:07:22.539Z,24.51
2018-05-29T15:09:49.987Z,23.97
2018-05-29T15:12:17.456Z,23.78
2018-05-29T15:14:44.911Z,24.28
2018-05-29T15:17:12.388Z,24.13
2018-05-29T15:19:39.930Z,24.33
2018-05-29T15:22:07.560Z,24.80
2018-05-29T15:24:35.059Z,25.39
2018-05-29T15:27:02.828Z,25.27
2018-05-29T15:29:30.269Z,25.87
2018-05-29T15:31:57.723Z,26.72
2018-05-29T15:34:25.213Z,27.82
2018-05-29T15:36:52.746Z,29.24
2018-05-29T15:39:20.172Z,30.38
2018-05-29T15:41:47.693Z,32.81
2018-05-29T15:44:15.182Z,34.51
2018-05-29T15:46:42.672Z,33.69
2018-05-29T15:49:10.132Z,32.18
2018-05-29T15:51:37.580Z,30.50
2018-05-29T15:54:05.039Z,28.60
2018-05-29T15:56:32.593Z,28.09
2018-05-29T15:59:00.039Z,27.71
2018-05-29T16:01:27.483Z,27.39
2018-05-29T16:03:54.994Z,27.21
2018-05-29T16:06:22.456Z,27.31
2018-05-29T16:08:50.105Z,28.92
2018-05-29T16:11:17.692Z,30.64
2018-05-29T16:13:45.106Z,31.95
2018-05-29T16:16:12.546Z,33.04
2018-05-29T16:18:40.002Z,34.89
2018-05-29T16:21:07.440Z,34.97
2018-05-29T16:23:34.959Z,36.90
2018-05-29T16:26:02.526Z,36.84
2018-05-29T16:28:29.994Z,37.72
2018-05-29T16:30:57.474Z,38.06
2018-05-29T16:33:24.968Z,39.11
2018-05-29T16:35:52.406Z,39.10
2018-05-29T16:38:19.871Z,40.02
2018-05-29T16:40:47.401Z,38.96
2018-05-29T16:43:14.879Z,38.69
2018-05-29T16:45:42.351Z,39.35
2018-05-29T16:48:09.794Z,38.92
2018-05-29T16:50:37.276Z,39.38
2018-05-29T16:53:04.746Z,39.97
2018-05-29T16:55:32.209Z,38.32
2018-05-29T16:57:59.755Z,38.49
2018-05-29T17:00:27.226Z,39.14
2018-05-29T17:02:54.701Z,39.69
2018-05-29T17:05:22.148Z,39.77
2018-05-29T17:07:49.623Z,38.75
2018-05-29T17:10:17.136Z,37.16
2018-05-29T17:12:44.618Z,37.84
2018-05-29T17:15:12.159Z,38.18
2018-05-29T17:17:39.600Z,38.28
2018-05-29T17:20:07.087Z,38.60
2018-05-29T17:22:34.628Z,37.34
2018-05-29T17:25:02.110Z,37.42
2018-05-29T17:27:29.556Z,37.20
2018-05-29T17:29:57.099Z,36.25
2018-05-29T17:32:24.559Z,36.69
2018-05-29T17:34:52.037Z,36.37
2018-05-29T17:37:19.490Z,37.42
2018-05-29T17:39:46.971Z,35.90
2018-05-29T17:42:14.483Z,35.52
2018-05-29T17:44:42.111Z,33.84
2018-05-29T17:47:09.608Z,34.18
2018-05-29T17:49:37.057Z,34.46
2018-05-29T17:52:04.699Z,34.43
2018-05-29T17:54:32.484Z,33.97
2018-05-29T17:57:00.114Z,33.40
2018-05-29T17:59:27.638Z,31.45
2018-05-29T18:01:55.610Z,30.40
2018-05-29T18:04:23.090Z,29.32
2018-05-29T18:06:50.543Z,28.35
2018-05-29T18:09:17.999Z,27.64
2018-05-29T18:11:45.452Z,27.34
2018-05-29T18:14:12.928Z,27.11
2018-05-29T18:16:40.429Z,27.01
2018-05-29T18:19:07.975Z,26.82
2018-05-29T18:21:35.431Z,26.88
2018-05-29T18:24:03.020Z,26.74
2018-05-29T18:26:31.600Z,26.57
2018-05-29T18:28:59.121Z,26.30
2018-05-29T18:31:26.588Z,25.80
2018-05-29T18:33:54.044Z,26.01
2018-05-29T18:36:21.616Z,25.88
2018-05-29T18:38:49.094Z,25.71
2018-05-29T18:41:16.716Z,25.27
2018-05-29T18:43:44.180Z,24.99
2018-05-29T18:46:11.663Z,24.80
2018-05-29T18:48:39.137Z,24.76
2018-05-29T18:51:06.843Z,24.55
2018-05-29T18:53:34.295Z,24.52
2018-05-29T18:56:02.161Z,24.10
2018-05-29T18:58:29.669Z,24.26
2018-05-29T19:00:57.215Z,23.93
2018-05-29T19:03:24.738Z,23.80
2018-05-29T19:05:52.174Z,23.32
2018-05-29T19:08:19.796Z,23.43
2018-05-29T19:10:47.279Z,23.07
2018-05-29T19:13:14.824Z,23.03
2018-05-29T19:15:42.304Z,22.65
2018-05-29T19:18:09.753Z,22.65
2018-05-29T19:20:37.262Z,22.58
2018-05-29T19:23:05.038Z,22.29
2018-05-29T19:25:32.519Z,22.44
2018-05-29T19:27:59.975Z,22.54
2018-05-29T19:30:27.446Z,22.49
2018-05-29T19:32:54.904Z,22.10
2018-05-29T19:35:22.458Z,22.15
2018-05-29T19:37:49.913Z,22.27
2018-05-29T19:40:17.391Z,22.07
2018-05-29T19:42:44.850Z,21.83
2018-05-29T19:45:12.305Z,21.80
2018-05-29T19:47:39.787Z,21.72
2018-05-29T19:50:07.270Z,21.59
2018-05-29T19:52:34.719Z,21.54
2018-05-29T19:55:02.192Z,21.46
2018-05-29T19:57:29.798Z,21.38
2018-05-29T19:59:57.353Z,21.48
2018-05-29T20:02:24.821Z,21.29
2018-05-29T20:04:52.360Z,21.17
2018-05-29T20:07:19.880Z,21.12
2018-05-29T20:09:47.416Z,21.05
2018-05-29T20:12:14.912Z,20.99
2018-05-29T20:14:42.358Z,20.92
2018-05-29T20:17:09.820Z,20.88
2018-05-29T20:19:38.230Z,20.84
2018-05-29T20:22:05.755Z,20.77
2018-05-29T20:24:33.905Z,20.67
2018-05-29T20:27:01.569Z,20.60
2018-05-29T20:29:29.024Z,20.63
2018-05-29T20:31:56.474Z,20.53
2018-05-29T20:34:23.964Z,20.47
2018-05-29T20:36:51.521Z,20.45
2018-05-29T20:39:18.937Z,20.52
2018-05-29T20:41:46.420Z,20.46
2018-05-29T20:44:14.067Z,20.46
2018-05-29T20:46:41.593Z,20.46
2018-05-29T20:49:09.152Z,20.40
2018-05-29T20:51:36.674Z,20.46
2018-05-29T20:54:04.099Z,20.40
2018-05-29T20:56:31.553Z,20.41
2018-05-29T20:58:59.008Z,20.37
2018-05-29T21:01:26.496Z,20.34
2018-05-29T21:03:53.958Z,20.34
2018-05-29T21:06:21.435Z,20.24
2018-05-29T21:08:48.965Z,20.18
2018-05-29T21:11:16.469Z,20.17
2018-05-29T21:13:43.927Z,20.02
2018-05-29T21:16:11.462Z,19.96
2018-05-29T21:18:38.920Z,19.95
2018-05-29T21:21:06.449Z,19.87
2018-05-29T21:23:33.914Z,19.71
2018-05-29T21:26:01.354Z,19.76
2018-05-29T21:28:28.820Z,19.72
2018-05-29T21:30:56.285Z,19.72
2018-05-29T21:33:23.744Z,19.65
2018-05-29T21:35:51.192Z,19.48
2018-05-29T21:38:18.637Z,19.39
2018-05-29T21:40:46.146Z,19.29
2018-05-29T21:43:13.698Z,19.20
2018-05-29T21:45:41.206Z,19.27
2018-05-29T21:48:08.656Z,19.23
2018-05-29T21:50:36.175Z,19.45
2018-05-29T21:53:03.652Z,19.85
2018-05-29T21:55:31.213Z,20.48
2018-05-29T21:57:58.740Z,20.05
2018-05-29T22:00:26.301Z,19.78
2018-05-29T22:02:53.747Z,20.22
2018-05-29T22:05:21.207Z,20.07
2018-05-29T22:07:48.671Z,20.04
2018-05-29T22:10:16.141Z,19.67
2018-05-29T22:12:43.691Z,19.49
2018-05-29T22:15:11.221Z,19.17
2018-05-29T22:17:38.693Z,19.05
2018-05-29T22:20:06.147Z,18.96
2018-05-29T22:22:33.619Z,18.91
2018-05-29T22:25:01.327Z,18.81
2018-05-29T22:27:28.786Z,18.81
2018-05-29T22:29:56.264Z,18.70
2018-05-29T22:32:23.736Z,18.67
2018-05-29T22:34:51.196Z,18.74
2018-05-29T22:37:18.661Z,18.68
2018-05-29T22:39:46.103Z,18.70
2018-05-29T22:42:13.560Z,18.71
2018-05-29T22:44:41.014Z,18.69
2018-05-29T22:47:08.501Z,18.60
2018-05-29T22:49:35.996Z,18.63
2018-05-29T22:52:03.494Z,18.67
2018-05-29T22:54:30.985Z,18.62
2018-05-29T22:57:00.690Z,18.53
2018-05-29T22:59:28.443Z,18.50
2018-05-29T23:01:56.245Z,18.45
2018-05-29T23:04:23.763Z,18.45
2018-05-29T23:06:51.244Z,18.40
2018-05-29T23:09:18.705Z,18.41
2018-05-29T23:11:46.157Z,18.35
2018-05-29T23:14:13.619Z,18.30
2018-05-29T23:16:41.137Z,18.30
2018-05-29T23:19:08.578Z,18.23
2018-05-29T23:21:36.046Z,18.17
2018-05-29T23:24:03.492Z,18.12
2018-05-29T23:26:30.967Z,18.09
2018-05-29T23:28:58.432Z,18.10
2018-05-29T23:31:25.901Z,18.03
2018-05-29T23:33:53.355Z,18.04
2018-05-29T23:36:20.807Z,18.02
2018-05-29T23:38:48.255Z,18.04
2018-05-29T23:41:15.710Z,17.93
2018-05-29T23:43:43.258Z,17.92
2018-05-29T23:46:10.715Z,17.90
2018-05-29T23:48:38.164Z,17.78
2018-05-29T23:51:05.639Z,17.80
2018-05-29T23:53:33.088Z,17.67
2018-05-29T23:56:00.539Z,17.68
2018-05-29T23:58:28.020Z,17.63
